Time;durP1;ratioP1;P1;durP2;ratioP2;P2;SDS_P1;SDS_P2;PMS_P1;PMS_P2;Temp;Humidity;BMP_temperature;BMP_pressure;BME280_temperature;BME280_humidity;BME280_pressure;Samples;Min_cycle;Max_cycle;Signal;HPM_P1;HPM_P2
2021/09/16 00:01:25;;;;;;;5.18;1.23;;;16.20;89.50;;;;;;5054354;28;20037;-76
2021/09/16 00:03:50;;;;;;;5.03;1.20;;;16.10;89.30;;;;;;5036563;28;20079;-76
2021/09/16 00:06:16;;;;;;;8.77;1.05;;;16.10;89.40;;;;;;5052978;28;20044;-76
2021/09/16 00:08:41;;;;;;;4.35;1.13;;;16.10;89.30;;;;;;5036405;28;20115;-76
2021/09/16 00:11:07;;;;;;;4.00;1.20;;;16.10;89.30;;;;;;5036335;28;20183;-75
2021/09/16 00:13:33;;;;;;;5.55;1.10;;;16.00;89.30;;;;;;5019631;28;20033;-76
2021/09/16 00:15:58;;;;;;;8.27;1.20;;;16.00;89.30;;;;;;5020046;28;20025;-76
2021/09/16 00:18:24;;;;;;;3.85;1.20;;;16.00;89.10;;;;;;5053464;28;20036;-76
2021/09/16 00:20:51;;;;;;;6.28;1.50;;;15.90;89.00;;;;;;5035890;28;20056;-76
2021/09/16 00:23:17;;;;;;;2.70;1.10;;;15.90;89.00;;;;;;5051051;28;20028;-75
2021/09/16 00:25:44;;;;;;;8.68;1.75;;;15.80;89.10;;;;;;5030376;28;20033;-76
2021/09/16 00:28:10;;;;;;;6.90;1.60;;;15.80;89.10;;;;;;5014977;28;20552;-77
2021/09/16 00:30:35;;;;;;;5.13;1.63;;;15.80;88.90;;;;;;5052867;28;20059;-76
2021/09/16 00:33:01;;;;;;;4.78;1.55;;;15.70;89.00;;;;;;5028229;28;20033;-76
2021/09/16 00:35:27;;;;;;;6.72;1.75;;;15.60;89.20;;;;;;5016404;28;20034;-76
2021/09/16 00:37:52;;;;;;;7.00;1.70;;;15.60;89.40;;;;;;5048389;28;20029;-77
2021/09/16 00:40:18;;;;;;;4.72;1.45;;;15.60;89.50;;;;;;5019699;28;20036;-77
2021/09/16 00:42:44;;;;;;;8.82;1.70;;;15.60;89.40;;;;;;5031748;28;20021;-76
2021/09/16 00:45:11;;;;;;;8.25;1.73;;;15.60;89.50;;;;;;5036013;28;20025;-76
2021/09/16 00:47:41;;;;;;;5.13;1.95;;;15.50;89.60;;;;;;5035438;28;20432;-75
2021/09/16 00:50:07;;;;;;;5.95;1.77;;;15.50;89.80;;;;;;5053579;28;20035;-76
2021/09/16 00:52:35;;;;;;;6.18;2.00;;;15.40;89.90;;;;;;5019107;28;20021;-76
2021/09/16 00:55:01;;;;;;;6.03;1.70;;;15.40;90.00;;;;;;5035269;28;20480;-76
2021/09/16 00:57:28;;;;;;;7.40;1.90;;;15.40;90.00;;;;;;5035570;28;20390;-76
2021/09/16 00:59:56;;;;;;;5.97;2.20;;;15.40;90.10;;;;;;5008304;28;20040;-76
2021/09/16 01:02:21;;;;;;;7.10;1.97;;;15.40;90.10;;;;;;5031812;28;20504;-75
2021/09/16 01:04:47;;;;;;;7.18;2.17;;;15.40;90.10;;;;;;5018512;28;20045;-76
2021/09/16 01:07:14;;;;;;;5.82;1.90;;;15.40;90.20;;;;;;5053080;28;20048;-76
2021/09/16 01:09:42;;;;;;;6.10;2.13;;;15.30;90.20;;;;;;5051796;28;20025;-76
2021/09/16 01:12:08;;;;;;;9.27;2.15;;;15.30;90.20;;;;;;5052959;28;20028;-76
2021/09/16 01:14:34;;;;;;;7.30;2.47;;;15.30;90.20;;;;;;5018595;28;20056;-75
2021/09/16 01:17:00;;;;;;;5.95;1.88;;;15.30;90.20;;;;;;5018525;28;20466;-76
2021/09/16 01:19:26;;;;;;;4.85;2.45;;;15.30;90.20;;;;;;5053202;28;20023;-76
2021/09/16 01:21:52;;;;;;;6.50;2.10;;;15.20;90.20;;;;;;5031473;28;20029;-76
2021/09/16 01:24:18;;;;;;;6.40;2.05;;;15.20;90.20;;;;;;5015537;28;20080;-76
2021/09/16 01:26:45;;;;;;;6.13;2.17;;;15.20;90.20;;;;;;5034964;28;20549;-75
2021/09/16 01:29:14;;;;;;;6.35;2.10;;;15.20;90.20;;;;;;5026872;28;20029;-76
2021/09/16 01:31:41;;;;;;;;;;;15.10;90.20;;;;;;5032548;28;20084;-76
2021/09/16 01:34:09;;;;;;;5.85;2.35;;;15.10;90.10;;;;;;5039554;28;19909;-75
2021/09/16 01:36:35;;;;;;;5.25;2.10;;;15.10;90.30;;;;;;5051878;28;20040;-75
2021/09/16 01:39:04;;;;;;;10.32;2.75;;;15.00;90.30;;;;;;5051524;28;20037;-75
2021/09/16 01:41:30;;;;;;;6.80;2.80;;;15.00;90.30;;;;;;5034239;28;20017;-76
2021/09/16 01:43:56;;;;;;;6.90;2.72;;;15.00;90.30;;;;;;5034740;28;20115;-76
2021/09/16 01:46:21;;;;;;;6.07;2.50;;;15.00;90.40;;;;;;5034656;28;20078;-76
2021/09/16 01:48:47;;;;;;;5.10;2.35;;;15.00;90.40;;;;;;5034685;28;20089;-76
2021/09/16 01:51:13;;;;;;;5.55;2.88;;;14.90;90.40;;;;;;5051499;28;20753;-76
2021/09/16 01:53:39;;;;;;;7.28;2.60;;;15.00;90.40;;;;;;5029738;28;20030;-76
2021/09/16 01:56:05;;;;;;;8.05;2.90;;;15.00;90.40;;;;;;5045178;28;20036;-76
2021/09/16 01:58:30;;;;;;;9.98;3.10;;;14.90;90.30;;;;;;5033517;28;20029;-76
2021/09/16 02:00:57;;;;;;;5.30;2.88;;;14.90;90.30;;;;;;5052592;28;20029;-75
2021/09/16 02:03:23;;;;;;;7.30;3.17;;;14.90;90.30;;;;;;5034918;28;20045;-76
2021/09/16 02:05:49;;;;;;;9.30;3.00;;;14.80;90.30;;;;;;5051159;28;20095;-76
2021/09/16 02:08:14;;;;;;;8.70;3.20;;;14.80;90.30;;;;;;5034575;28;20064;-75
2021/09/16 02:10:40;;;;;;;6.05;3.35;;;14.80;90.30;;;;;;5034574;28;20040;-76
2021/09/16 02:13:06;;;;;;;4.38;2.53;;;14.80;90.30;;;;;;5034389;28;20474;-76
2021/09/16 02:15:31;;;;;;;4.93;2.80;;;14.70;90.30;;;;;;5033389;28;20063;-76
2021/09/16 02:17:57;;;;;;;8.55;3.08;;;14.70;90.30;;;;;;5052342;28;20029;-75
2021/09/16 02:20:23;;;;;;;6.07;3.00;;;14.70;90.30;;;;;;5031118;28;20033;-76
2021/09/16 02:22:48;;;;;;;10.00;3.15;;;14.60;90.30;;;;;;5022258;28;20056;-76
2021/09/16 02:25:14;;;;;;;6.43;3.00;;;14.60;90.20;;;;;;5034817;28;20032;-76
2021/09/16 02:27:40;;;;;;;5.57;2.97;;;14.60;90.20;;;;;;5030982;28;20456;-76
2021/09/16 02:30:06;;;;;;;7.45;3.08;;;14.50;90.20;;;;;;5032444;28;20029;-76
2021/09/16 02:32:33;;;;;;;6.72;3.22;;;14.50;90.30;;;;;;5019964;28;20025;-76
2021/09/16 02:34:58;;;;;;;6.90;3.20;;;14.40;90.30;;;;;;5017977;28;20044;-76
2021/09/16 02:37:24;;;;;;;9.57;3.35;;;14.40;90.30;;;;;;5030971;28;20030;-75
2021/09/16 02:39:50;;;;;;;7.07;3.75;;;14.40;90.40;;;;;;5030768;28;20029;-76
2021/09/16 02:42:16;;;;;;;7.10;3.55;;;14.30;90.40;;;;;;5032003;28;20477;-75
2021/09/16 02:44:41;;;;;;;15.20;3.72;;;14.30;90.40;;;;;;5055365;28;20040;-75
2021/09/16 02:47:07;;;;;;;4.30;3.10;;;14.30;90.40;;;;;;5031079;28;20036;-75
2021/09/16 02:49:33;;;;;;;6.00;3.00;;;14.20;90.50;;;;;;5050816;28;20390;-75
2021/09/16 02:51:59;;;;;;;7.38;3.53;;;14.20;90.60;;;;;;5033788;28;20122;-75
2021/09/16 02:54:24;;;;;;;5.40;3.45;;;14.20;90.60;;;;;;5050815;28;20025;-75
2021/09/16 02:56:50;;;;;;;7.25;3.25;;;14.20;90.60;;;;;;5032332;28;20030;-77
2021/09/16 02:59:16;;;;;;;4.68;3.20;;;14.10;90.60;;;;;;5044699;28;20493;-75
2021/09/16 03:01:43;;;;;;;8.93;3.83;;;14.10;90.60;;;;;;5035932;28;20025;-76
2021/09/16 03:04:09;;;;;;;6.70;3.65;;;14.20;90.70;;;;;;5034048;28;20074;-76
2021/09/16 03:06:35;;;;;;;6.28;3.65;;;14.10;90.70;;;;;;5016569;28;20045;-75
2021/09/16 03:09:01;;;;;;;5.43;2.88;;;14.10;90.70;;;;;;5034386;28;20079;-76
2021/09/16 03:11:27;;;;;;;4.32;3.25;;;14.10;90.80;;;;;;5017825;28;20553;-76
2021/09/16 03:13:53;;;;;;;5.18;2.95;;;14.10;90.80;;;;;;5024422;28;20520;-76
2021/09/16 03:16:18;;;;;;;7.82;3.35;;;14.10;90.80;;;;;;5037321;28;20043;-76
2021/09/16 03:18:44;;;;;;;5.32;3.30;;;14.10;90.70;;;;;;5020648;28;20040;-76
2021/09/16 03:21:10;;;;;;;10.93;3.20;;;14.10;90.70;;;;;;5037423;28;20072;-76
2021/09/16 03:23:35;;;;;;;5.00;3.17;;;14.10;90.80;;;;;;5053647;28;20037;-76
2021/09/16 03:26:01;;;;;;;8.55;3.65;;;14.10;90.80;;;;;;5037369;28;20496;-76
2021/09/16 03:28:27;;;;;;;5.95;3.47;;;14.10;90.80;;;;;;5050320;28;20496;-76
2021/09/16 03:30:53;;;;;;;7.00;3.42;;;14.00;90.80;;;;;;5023257;28;20052;-75
2021/09/16 03:33:18;;;;;;;8.93;3.03;;;14.00;90.80;;;;;;5033835;28;20021;-75
2021/09/16 03:35:44;;;;;;;9.52;3.28;;;14.00;90.80;;;;;;5033990;28;20029;-75
2021/09/16 03:38:10;;;;;;;6.75;3.20;;;14.00;90.90;;;;;;5034734;28;20025;-76
2021/09/16 03:40:35;;;;;;;8.52;3.45;;;13.90;90.90;;;;;;5053495;28;20469;-75
2021/09/16 03:43:01;;;;;;;7.35;3.40;;;13.90;90.90;;;;;;5033239;28;20788;-76
2021/09/16 03:45:27;;;;;;;6.75;3.08;;;13.90;90.90;;;;;;5033026;28;20037;-75
2021/09/16 03:47:52;;;;;;;8.23;3.50;;;13.90;91.00;;;;;;5033286;28;20036;-76
2021/09/16 03:50:18;;;;;;;5.45;3.10;;;13.90;91.00;;;;;;5040919;28;20037;-76
2021/09/16 03:52:44;;;;;;;5.55;3.05;;;13.90;91.00;;;;;;5053874;28;20033;-76
2021/09/16 03:55:10;;;;;;;6.05;3.10;;;13.80;91.00;;;;;;5036204;28;20033;-76
2021/09/16 03:57:36;;;;;;;8.70;3.58;;;13.80;91.00;;;;;;5035388;28;20033;-76
2021/09/16 04:00:03;;;;;;;12.70;3.35;;;13.90;91.10;;;;;;5051714;28;20136;-75
2021/09/16 04:02:28;;;;;;;11.23;3.50;;;13.90;91.10;;;;;;5053031;28;20465;-75
2021/09/16 04:04:54;;;;;;;12.88;3.20;;;13.90;91.10;;;;;;5014361;28;20137;-76
2021/09/16 04:07:19;;;;;;;7.35;3.80;;;13.90;91.40;;;;;;4994910;28;20045;-75
2021/09/16 04:09:45;;;;;;;8.93;4.00;;;13.80;91.10;;;;;;5013183;28;20026;-76
2021/09/16 04:12:11;;;;;;;7.32;3.72;;;13.80;91.10;;;;;;5028738;28;20033;-75
2021/09/16 04:14:36;;;;;;;8.95;3.45;;;13.80;91.20;;;;;;4996847;28;20064;-76
2021/09/16 04:17:02;;;;;;;9.65;4.43;;;13.80;91.20;;;;;;4993587;28;20084;-76
2021/09/16 04:19:28;;;;;;;7.75;4.15;;;13.80;91.30;;;;;;5012622;28;20042;-76
2021/09/16 04:21:53;;;;;;;5.00;3.75;;;13.80;91.40;;;;;;4999354;28;20109;-76
2021/09/16 04:24:19;;;;;;;9.77;3.90;;;13.80;91.50;;;;;;5009639;28;20034;-76
2021/09/16 04:26:45;;;;;;;9.38;4.13;;;13.80;91.50;;;;;;5000310;28;20030;-76
2021/09/16 04:29:12;;;;;;;8.70;4.20;;;13.80;91.60;;;;;;4993381;28;20038;-76
2021/09/16 04:31:38;;;;;;;9.50;4.50;;;13.80;91.60;;;;;;5009766;28;20033;-75
2021/09/16 04:34:04;;;;;;;8.23;4.35;;;13.70;91.60;;;;;;5012864;28;20429;-76
2021/09/16 04:36:30;;;;;;;5.35;4.13;;;13.80;91.70;;;;;;5013932;28;20064;-76
2021/09/16 04:38:55;;;;;;;9.48;4.30;;;13.70;91.70;;;;;;5012044;28;20084;-75
2021/09/16 04:41:21;;;;;;;10.27;4.47;;;13.70;91.70;;;;;;5013959;28;20442;-76
2021/09/16 04:43:47;;;;;;;11.15;6.38;;;13.70;91.70;;;;;;5012762;28;20030;-75
2021/09/16 04:46:12;;;;;;;15.75;6.07;;;13.70;91.70;;;;;;5012458;28;20030;-75
2021/09/16 04:48:38;;;;;;;10.23;5.28;;;13.70;91.80;;;;;;5012039;28;20037;-76
2021/09/16 04:51:04;;;;;;;10.05;6.00;;;13.70;91.80;;;;;;5012021;28;20034;-76
2021/09/16 04:53:29;;;;;;;9.43;6.50;;;13.70;91.80;;;;;;5012506;28;20482;-75
2021/09/16 04:55:55;;;;;;;11.93;6.47;;;13.70;91.80;;;;;;5001330;28;20508;-76
2021/09/16 04:58:21;;;;;;;9.30;5.95;;;13.70;91.80;;;;;;5011782;28;20145;-76
2021/09/16 05:00:46;;;;;;;12.32;7.00;;;13.70;91.80;;;;;;4991959;28;20046;-75
2021/09/16 05:03:12;;;;;;;8.88;6.20;;;13.70;91.70;;;;;;4995495;28;20050;-76
2021/09/16 05:05:38;;;;;;;14.80;7.45;;;13.70;91.80;;;;;;5045656;28;20037;-76
2021/09/16 05:08:04;;;;;;;15.18;6.72;;;13.70;91.80;;;;;;5033320;28;20106;-75
2021/09/16 05:10:30;;;;;;;14.88;7.80;;;13.70;91.80;;;;;;5032424;28;20041;-76
2021/09/16 05:12:56;;;;;;;16.27;8.43;;;13.70;91.90;;;;;;5011670;28;20076;-76
2021/09/16 05:15:22;;;;;;;13.75;9.20;;;13.70;92.20;;;;;;5021883;28;20060;-76
2021/09/16 05:17:47;;;;;;;16.20;8.38;;;13.70;91.90;;;;;;5016194;28;20021;-75
2021/09/16 05:20:13;;;;;;;17.13;10.02;;;13.70;92.00;;;;;;5032465;28;20033;-76
2021/09/16 05:22:39;;;;;;;20.17;10.68;;;13.70;92.00;;;;;;5048556;28;20109;-76
2021/09/16 05:25:05;;;;;;;22.13;11.07;;;13.80;92.10;;;;;;5010389;28;20026;-76
2021/09/16 05:27:31;;;;;;;20.40;10.85;;;13.70;92.00;;;;;;5029077;28;20037;-76
2021/09/16 05:29:57;;;;;;;19.83;10.65;;;13.70;92.10;;;;;;5011653;28;20395;-76
2021/09/16 05:32:27;;;;;;;18.70;11.00;;;13.70;92.10;;;;;;4996203;28;20038;-75
2021/09/16 05:34:54;;;;;;;24.48;11.23;;;13.80;92.10;;;;;;5012182;28;20433;-76
2021/09/16 05:37:21;;;;;;;22.75;12.02;;;13.80;92.10;;;;;;5013224;28;20084;-76
2021/09/16 05:39:47;;;;;;;18.63;10.70;;;13.80;92.20;;;;;;5029925;28;20086;-76
2021/09/16 05:42:12;;;;;;;19.00;10.38;;;13.90;92.20;;;;;;5015410;28;20034;-75
2021/09/16 05:44:38;;;;;;;22.25;11.93;;;13.90;92.20;;;;;;5021629;28;20034;-76
2021/09/16 05:47:04;;;;;;;19.58;11.95;;;13.90;92.20;;;;;;5031541;28;20116;-76
2021/09/16 05:49:30;;;;;;;22.58;12.00;;;14.00;92.30;;;;;;5031963;28;20029;-76
2021/09/16 05:51:56;;;;;;;19.23;12.25;;;14.00;92.30;;;;;;5008404;28;20026;-77
2021/09/16 05:54:22;;;;;;;21.85;12.73;;;14.00;92.30;;;;;;5011716;28;20073;-75
2021/09/16 05:56:48;;;;;;;13.90;9.20;;;14.00;92.30;;;;;;5032447;28;20041;-76
2021/09/16 05:59:17;;;;;;;19.73;11.77;;;14.00;92.40;;;;;;5033117;28;20112;-76
2021/09/16 06:01:43;;;;;;;21.35;12.73;;;14.10;92.40;;;;;;5031225;28;20379;-75
2021/09/16 06:04:09;;;;;;;24.45;14.02;;;14.10;92.40;;;;;;5011919;28;20076;-75
2021/09/16 06:06:35;;;;;;;18.45;12.57;;;14.10;92.40;;;;;;5042535;28;20030;-75
2021/09/16 06:09:01;;;;;;;21.38;12.15;;;14.10;92.50;;;;;;5030891;28;20561;-76
2021/09/16 06:11:26;;;;;;;18.90;11.68;;;14.20;92.50;;;;;;5032504;28;20034;-77
2021/09/16 06:13:54;;;;;;;23.05;12.43;;;14.20;92.40;;;;;;5030924;28;20029;-76
2021/09/16 06:16:24;;;;;;;22.52;13.15;;;14.30;92.50;;;;;;5028288;28;20037;-76
2021/09/16 06:18:50;;;;;;;18.70;11.45;;;14.30;92.40;;;;;;5030448;28;20087;-76
2021/09/16 06:21:17;;;;;;;19.42;12.60;;;14.30;92.40;;;;;;5047364;28;20112;-77
2021/09/16 06:23:42;;;;;;;23.20;14.52;;;14.30;92.40;;;;;;5031349;28;20095;-76
2021/09/16 06:26:08;;;;;;;21.65;12.75;;;14.30;92.50;;;;;;5032304;28;20041;-76
2021/09/16 06:28:35;;;;;;;27.10;15.32;;;14.40;92.50;;;;;;5030237;28;20082;-76
2021/09/16 06:31:01;;;;;;;22.70;13.25;;;14.40;92.50;;;;;;5014573;28;20034;-76
2021/09/16 06:33:27;;;;;;;24.02;13.18;;;14.40;92.50;;;;;;5017184;28;20478;-76
2021/09/16 06:35:53;;;;;;;19.10;13.35;;;14.50;92.50;;;;;;4996367;28;20033;-76
2021/09/16 06:38:19;;;;;;;23.98;14.02;;;14.50;92.50;;;;;;5014877;28;20065;-76
2021/09/16 06:40:45;;;;;;;24.95;14.55;;;14.60;92.50;;;;;;5031659;28;20033;-76
2021/09/16 06:43:10;;;;;;;23.88;14.88;;;14.70;92.40;;;;;;5017774;28;20025;-75
2021/09/16 06:45:36;;;;;;;22.80;14.50;;;14.70;92.30;;;;;;5018279;28;20033;-75
2021/09/16 06:48:02;;;;;;;22.90;14.27;;;14.80;92.30;;;;;;5036293;28;20108;-75
2021/09/16 06:50:28;;;;;;;23.83;15.15;;;14.90;92.20;;;;;;5036079;28;20029;-76
2021/09/16 06:52:54;;;;;;;17.83;11.80;;;15.00;92.10;;;;;;5026650;28;20123;-75
2021/09/16 06:55:20;;;;;;;20.25;14.10;;;15.10;92.00;;;;;;5017905;28;20144;-76
2021/09/16 06:57:46;;;;;;;22.38;13.65;;;15.20;91.90;;;;;;5018002;28;20529;-76
2021/09/16 07:00:12;;;;;;;23.55;14.85;;;15.30;91.80;;;;;;5035579;28;20442;-75
2021/09/16 07:02:38;;;;;;;21.17;13.43;;;15.40;91.70;;;;;;5034541;28;20040;-75
2021/09/16 07:05:05;;;;;;;26.73;14.10;;;15.60;91.60;;;;;;5033969;28;20057;-75
2021/09/16 07:07:30;;;;;;;19.55;11.15;;;15.70;91.50;;;;;;5034534;28;20048;-76
2021/09/16 07:09:57;;;;;;;29.33;13.85;;;15.80;91.30;;;;;;5035822;28;20033;-75
2021/09/16 07:12:23;;;;;;;19.23;14.10;;;15.90;91.20;;;;;;5031423;28;20048;-76
2021/09/16 07:14:48;;;;;;;23.95;14.07;;;16.00;91.10;;;;;;5034151;28;20546;-76
2021/09/16 07:17:14;;;;;;;20.08;13.52;;;16.20;91.10;;;;;;5035671;28;20109;-76
2021/09/16 07:19:40;;;;;;;21.70;12.55;;;16.30;91.00;;;;;;5034279;28;20359;-76
2021/09/16 07:22:06;;;;;;;15.88;11.63;;;16.40;90.90;;;;;;5031125;28;20028;-76
2021/09/16 07:24:32;;;;;;;19.55;12.20;;;16.50;90.70;;;;;;5014694;28;20084;-76
2021/09/16 07:26:57;;;;;;;18.00;12.15;;;16.70;90.50;;;;;;5047335;28;20068;-76
2021/09/16 07:29:25;;;;;;;18.13;10.57;;;16.80;90.40;;;;;;5035466;28;20025;-76
2021/09/16 07:31:52;;;;;;;17.77;10.52;;;16.90;90.20;;;;;;5029386;28;20538;-76
2021/09/16 07:34:20;;;;;;;19.33;10.70;;;17.00;90.10;;;;;;5010107;28;20037;-76
2021/09/16 07:36:47;;;;;;;20.85;11.25;;;17.20;90.10;;;;;;5049847;28;20029;-76
2021/09/16 07:39:15;;;;;;;18.52;11.75;;;17.30;89.90;;;;;;5035539;28;20029;-76
2021/09/16 07:41:41;;;;;;;15.83;10.33;;;17.40;89.60;;;;;;5035410;28;20087;-76
2021/09/16 07:44:07;;;;;;;12.82;9.80;;;17.50;89.00;;;;;;5035102;28;20026;-76
2021/09/16 07:46:34;;;;;;;15.00;9.70;;;17.60;88.60;;;;;;5033638;28;20040;-76
2021/09/16 07:49:00;;;;;;;19.30;9.60;;;17.70;88.30;;;;;;5050720;28;20036;-76
2021/09/16 07:51:26;;;;;;;17.30;10.75;;;17.90;88.10;;;;;;5013785;28;20438;-76
2021/09/16 07:53:53;;;;;;;15.15;8.70;;;17.90;87.70;;;;;;5030330;28;20395;-76
2021/09/16 07:56:21;;;;;;;16.52;9.27;;;18.00;87.20;;;;;;5033678;28;20041;-76
2021/09/16 07:58:48;;;;;;;13.95;8.75;;;18.00;87.30;;;;;;5033387;28;20037;-77
2021/09/16 08:01:13;;;;;;;17.33;8.48;;;18.10;87.20;;;;;;5033735;28;20104;-77
2021/09/16 08:03:39;;;;;;;15.43;8.80;;;18.20;86.70;;;;;;5030164;28;20144;-75
2021/09/16 08:06:05;;;;;;;16.17;8.20;;;18.40;86.40;;;;;;5030296;28;20083;-77
2021/09/16 08:08:32;;;;;;;12.63;7.35;;;18.40;86.20;;;;;;5033866;28;20026;-77
2021/09/16 08:10:58;;;;;;;10.23;6.70;;;18.50;85.30;;;;;;5034670;28;20429;-77
2021/09/16 08:13:24;;;;;;;10.30;6.38;;;18.50;84.70;;;;;;5017067;28;20030;-77
2021/09/16 08:15:51;;;;;;;11.40;6.20;;;18.50;84.90;;;;;;5033475;28;20030;-77
2021/09/16 08:18:18;;;;;;;10.60;5.45;;;18.60;84.10;;;;;;5033226;28;20053;-77
2021/09/16 08:20:48;;;;;;;11.55;6.03;;;18.70;84.10;;;;;;5034324;28;20018;-77
2021/09/16 08:23:14;;;;;;;7.82;5.78;;;18.70;83.70;;;;;;5032782;28;20052;-77
2021/09/16 08:25:40;;;;;;;12.05;5.55;;;18.80;83.20;;;;;;5000046;28;20402;-76
2021/09/16 08:28:06;;;;;;;14.27;6.47;;;18.90;82.60;;;;;;5043113;28;20025;-77
2021/09/16 08:30:31;;;;;;;8.98;6.18;;;19.00;82.80;;;;;;5044066;28;20046;-76
2021/09/16 08:32:58;;;;;;;12.13;5.80;;;19.00;82.60;;;;;;5009012;28;20071;-77
2021/09/16 08:35:24;;;;;;;10.95;5.50;;;19.10;82.30;;;;;;5016185;28;20030;-77
2021/09/16 08:37:50;;;;;;;10.85;4.82;;;19.10;81.70;;;;;;5032847;28;20659;-77
2021/09/16 08:40:16;;;;;;;9.93;5.05;;;19.20;81.60;;;;;;5032168;28;20041;-77
2021/09/16 08:42:44;;;;;;;9.93;5.65;;;19.30;81.70;;;;;;5015051;28;20025;-77
2021/09/16 08:45:14;;;;;;;6.95;5.13;;;19.40;81.40;;;;;;5032698;28;20025;-77
2021/09/16 08:47:41;;;;;;;8.15;4.90;;;19.50;80.80;;;;;;5032667;28;20021;-76
2021/09/16 08:50:08;;;;;;;9.02;4.72;;;19.70;80.80;;;;;;5031345;28;20041;-77
2021/09/16 08:52:37;;;;;;;6.25;3.90;;;19.70;80.50;;;;;;5014979;28;20025;-77
2021/09/16 08:55:08;;;;;;;10.35;4.13;;;19.70;80.60;;;;;;5015234;28;20037;-77
2021/09/16 08:57:39;;;;;;;7.15;3.78;;;19.70;79.90;;;;;;5032443;28;20033;-77
2021/09/16 09:00:11;;;;;;;9.77;4.05;;;19.80;79.80;;;;;;5033481;28;20034;-78
2021/09/16 09:02:37;;;;;;;7.93;3.88;;;19.90;78.90;;;;;;5032292;28;20076;-77
2021/09/16 09:05:06;;;;;;;8.73;4.07;;;19.80;79.40;;;;;;5012402;28;20491;-77
2021/09/16 09:07:39;;;;;;;;;;;19.70;79.80;;;;;;5013204;28;20030;-77
2021/09/16 09:10:06;;;;;;;8.10;3.97;;;19.60;79.90;;;;;;5032761;28;19956;-77
2021/09/16 09:12:37;;;;;;;8.88;4.50;;;19.40;80.50;;;;;;5032422;28;20053;-77
2021/09/16 09:15:10;;;;;;;7.00;3.25;;;19.20;80.80;;;;;;5000017;28;20119;-77
2021/09/16 09:17:35;;;;;;;10.15;3.80;;;19.20;81.70;;;;;;5034064;28;20032;-77
2021/09/16 09:20:10;;;;;;;7.53;3.63;;;19.40;81.00;;;;;;4999948;28;20025;-77
2021/09/16 09:22:39;;;;;;;7.25;2.85;;;19.80;79.90;;;;;;5012727;28;20026;-77
2021/09/16 09:25:13;;;;;;;6.72;3.25;;;20.00;78.80;;;;;;5029350;28;20018;-77
2021/09/16 09:27:50;;;;;;;6.32;2.95;;;19.90;77.90;;;;;;5029106;28;20084;-77
2021/09/16 09:30:20;;;;;;;13.48;3.58;;;19.80;78.50;;;;;;5028858;28;20034;-77
2021/09/16 09:32:48;;;;;;;9.65;2.70;;;19.60;78.80;;;;;;5028907;28;20025;-77
2021/09/16 09:35:35;;;;;;;7.65;2.80;;;19.50;79.50;;;;;;5028996;28;20368;-77
2021/09/16 09:38:23;;;;;;;5.85;2.30;;;19.30;78.80;;;;;;5028863;28;20060;-77
2021/09/16 09:40:56;;;;;;;7.68;2.53;;;19.10;79.10;;;;;;5028432;28;20030;-77
2021/09/16 09:43:24;;;;;;;4.57;2.67;;;19.00;79.80;;;;;;5029035;28;20054;-77
2021/09/16 09:46:08;;;;;;;3.95;2.30;;;19.10;79.80;;;;;;5021053;28;20029;-77
2021/09/16 09:48:40;;;;;;;6.57;2.33;;;19.20;80.00;;;;;;5031883;28;20029;-77
2021/09/16 09:51:07;;;;;;;5.38;2.40;;;19.50;78.90;;;;;;5033139;28;20104;-77
2021/09/16 09:53:42;;;;;;;4.38;2.35;;;19.60;77.80;;;;;;5032971;28;20025;-78
2021/09/16 09:56:17;;;;;;;6.30;2.20;;;19.60;77.60;;;;;;5033100;28;20064;-77
2021/09/16 09:58:44;;;;;;;4.68;2.10;;;19.50;77.40;;;;;;5032521;28;20406;-77
2021/09/16 10:01:31;;;;;;;6.72;1.98;;;19.40;77.90;;;;;;5031677;28;20033;-77
2021/09/16 10:03:57;;;;;;;3.42;1.50;;;19.30;78.50;;;;;;5020482;28;20057;-77
2021/09/16 10:06:37;;;;;;;3.75;1.50;;;19.40;78.20;;;;;;4998743;28;20096;-77
2021/09/16 10:09:10;;;;;;;7.00;2.25;;;19.70;76.30;;;;;;5015260;28;20087;-77
2021/09/16 10:11:44;;;;;;;4.57;2.05;;;19.80;77.60;;;;;;5015260;28;20394;-77
2021/09/16 10:14:10;;;;;;;7.32;2.22;;;19.80;77.00;;;;;;5052880;28;20087;-77
2021/09/16 10:16:36;;;;;;;4.20;2.00;;;19.70;76.90;;;;;;5055395;28;20028;-77
2021/09/16 10:19:02;;;;;;;4.55;1.98;;;19.60;77.70;;;;;;5038963;28;20029;-77
2021/09/16 10:21:28;;;;;;;5.95;1.33;;;19.60;78.00;;;;;;5038882;28;20074;-78
2021/09/16 10:23:56;;;;;;;4.65;1.80;;;19.80;77.00;;;;;;5056574;28;20025;-77
2021/09/16 10:26:31;;;;;;;5.03;1.73;;;20.00;76.20;;;;;;5056540;28;20504;-77
2021/09/16 10:28:56;;;;;;;4.65;1.70;;;20.00;75.80;;;;;;5038652;28;20036;-77
2021/09/16 10:31:24;;;;;;;4.93;2.08;;;20.00;76.40;;;;;;5038575;28;20033;-77
2021/09/16 10:33:50;;;;;;;5.47;1.73;;;19.90;76.80;;;;;;5038751;28;20037;-77
2021/09/16 10:36:16;;;;;;;4.55;1.70;;;19.90;76.70;;;;;;5055229;28;20474;-77
2021/09/16 10:39:16;;;;;;;6.32;1.60;;;20.00;76.80;;;;;;5038339;28;20021;-77
2021/09/16 10:41:44;;;;;;;3.47;1.40;;;20.10;76.20;;;;;;5056168;28;20025;-77
2021/09/16 10:44:10;;;;;;;6.77;1.80;;;20.20;75.30;;;;;;5038393;28;20024;-77
2021/09/16 10:46:44;;;;;;;4.60;1.80;;;20.10;75.10;;;;;;5038122;28;20757;-77
2021/09/16 10:49:22;;;;;;;6.50;1.55;;;20.10;75.20;;;;;;5037960;28;20032;-77
2021/09/16 10:51:53;;;;;;;4.07;1.45;;;20.10;76.30;;;;;;5055725;28;20063;-77
2021/09/16 10:54:29;;;;;;;5.63;1.33;;;20.30;74.90;;;;;;5038275;28;20043;-77
2021/09/16 10:57:02;;;;;;;5.95;1.48;;;20.50;74.50;;;;;;5038251;28;20035;-77
2021/09/16 10:59:52;;;;;;;6.68;1.83;;;20.70;74.30;;;;;;5037903;28;20032;-77
2021/09/16 11:02:31;;;;;;;3.25;1.40;;;20.90;73.70;;;;;;5034427;28;20029;-77
2021/09/16 11:04:59;;;;;;;3.53;1.88;;;21.10;72.90;;;;;;5034397;28;20053;-78
2021/09/16 11:07:35;;;;;;;2.38;1.55;;;21.10;72.60;;;;;;5034483;28;20033;-78
2021/09/16 11:10:16;;;;;;;3.35;1.60;;;21.00;72.70;;;;;;5037714;28;20512;-77
2021/09/16 11:12:45;;;;;;;4.97;1.40;;;20.90;72.80;;;;;;5055619;28;20486;-78
2021/09/16 11:15:13;;;;;;;5.28;1.30;;;20.80;73.40;;;;;;5021656;28;20078;-78
2021/09/16 11:17:40;;;;;;;4.72;1.60;;;20.80;72.00;;;;;;5037651;28;20029;-78
2021/09/16 11:20:10;;;;;;;3.65;1.42;;;20.90;72.10;;;;;;5037710;28;20021;-77
2021/09/16 11:22:36;;;;;;;8.25;1.58;;;21.00;72.80;;;;;;5054974;28;20032;-77
2021/09/16 11:25:02;;;;;;;5.68;1.63;;;21.00;72.00;;;;;;5037592;28;20030;-77
2021/09/16 11:27:34;;;;;;;5.32;1.40;;;21.00;70.50;;;;;;5054576;28;20031;-78
2021/09/16 11:30:02;;;;;;;17.33;2.10;;;21.10;70.20;;;;;;5037254;28;20493;-78
2021/09/16 11:32:38;;;;;;;6.57;1.10;;;21.20;68.80;;;;;;5054104;28;20044;-78
2021/09/16 11:35:24;;;;;;;7.47;1.50;;;21.20;69.60;;;;;;5053855;28;20061;-77
2021/09/16 11:37:51;;;;;;;6.03;1.30;;;21.20;69.60;;;;;;5054932;28;20108;-77
2021/09/16 11:40:19;;;;;;;4.13;1.08;;;21.10;70.30;;;;;;5020746;28;20367;-78
2021/09/16 11:42:48;;;;;;;3.85;1.05;;;21.10;70.30;;;;;;5037139;28;20492;-78
2021/09/16 11:45:19;;;;;;;3.75;1.30;;;21.00;70.20;;;;;;5055035;28;20052;-77
2021/09/16 11:47:56;;;;;;;4.70;1.00;;;20.90;70.30;;;;;;5055069;28;20025;-77
2021/09/16 11:50:32;;;;;;;4.13;1.20;;;20.80;70.50;;;;;;5036671;28;20072;-78
2021/09/16 11:53:06;;;;;;;4.35;1.20;;;20.80;70.00;;;;;;5036818;28;20037;-78
2021/09/16 11:55:34;;;;;;;4.22;1.10;;;20.90;70.30;;;;;;5036840;28;20025;-77
2021/09/16 11:58:11;;;;;;;;;;;21.10;70.20;;;;;;5053989;28;20469;-78
2021/09/16 12:00:40;;;;;;;3.88;1.17;;;21.20;69.40;;;;;;5036947;28;19916;-78
2021/09/16 12:03:08;;;;;;;3.50;1.30;;;21.40;68.90;;;;;;5054736;28;20032;-78
2021/09/16 12:05:43;;;;;;;4.25;1.17;;;21.60;69.20;;;;;;5036552;28;20114;-78
2021/09/16 12:08:12;;;;;;;6.10;1.30;;;21.80;67.80;;;;;;5054090;28;20103;-78
2021/09/16 12:10:54;;;;;;;3.95;1.40;;;22.00;66.30;;;;;;5036116;28;20059;-78
2021/09/16 12:13:24;;;;;;;3.85;1.35;;;22.10;66.30;;;;;;5036585;28;20496;-78
2021/09/16 12:16:00;;;;;;;9.88;1.30;;;22.20;66.40;;;;;;5036340;28;20397;-77
2021/09/16 12:18:26;;;;;;;4.43;1.15;;;22.20;66.80;;;;;;5054255;28;20067;-78
2021/09/16 12:20:52;;;;;;;3.72;1.20;;;22.00;67.40;;;;;;5036308;28;20466;-78
2021/09/16 12:23:21;;;;;;;6.25;1.42;;;22.10;66.80;;;;;;5036206;28;20037;-77
2021/09/16 12:26:22;;;;;;;3.53;1.30;;;22.10;66.20;;;;;;5036267;28;20043;-78
2021/09/16 12:28:58;;;;;;;3.42;1.23;;;22.10;66.00;;;;;;5035898;28;20095;-78
2021/09/16 12:31:29;;;;;;;2.60;1.30;;;22.20;65.30;;;;;;5036166;28;20074;-78
2021/09/16 12:34:07;;;;;;;5.00;1.63;;;22.30;63.90;;;;;;5035214;28;20074;-78
2021/09/16 12:36:35;;;;;;;5.90;1.25;;;22.50;64.10;;;;;;5054016;28;20029;-77
2021/09/16 12:39:14;;;;;;;4.32;1.00;;;22.60;63.60;;;;;;5052731;28;20120;-78
2021/09/16 12:41:50;;;;;;;3.67;1.27;;;22.70;62.90;;;;;;5053940;28;20017;-78
2021/09/16 12:44:28;;;;;;;6.45;1.40;;;22.70;63.30;;;;;;5052672;28;20083;-78
2021/09/16 12:47:16;;;;;;;2.22;1.08;;;22.60;64.10;;;;;;5036116;28;20048;-78